AVA109 SKBO-SUMU
Flight info
| Callsign | AVA109 |
|---|---|
| Flight time | N/A |
| Altitude | 37000 |
| Route | SOA1A POVSO DCT SJE DCT PABON/N0458F380 DCT LET/N0458F370 UP525 RCO UL417 LOKOX/N0452F390 UM784 SIS UZ120 GEMSU UP526 MONSA |
| Aircraft | A20N/M-SDE2E3FGHIRWXY/LB1 |
Departure
| Time | N/A |
|---|---|
| Airport | El Dorado International Airport (SKBO) |
Arrival
| Time | 2026-04-22 19:23 |
|---|---|
| Airport | Carrasco General Cesáreo L. Berisso International Airport (SUMU) |
| Time | Latitude | Longitude | Altitude | Speed | Heading |
|---|---|---|---|---|---|
| 2026-04-22 18:54 | -32.48931 | -56.82490 | 39122 ft | 485 kts | 176° |
| 2026-04-22 18:54 | -32.52169 | -56.81274 | 39118 ft | 485 kts | 176° |
| 2026-04-22 18:55 | -32.58569 | -56.78867 | 39123 ft | 485 kts | 176° |
| 2026-04-22 18:55 | -32.64998 | -56.76443 | 39122 ft | 484 kts | 176° |
| 2026-04-22 18:56 | -32.71430 | -56.74014 | 39130 ft | 484 kts | 176° |
| 2026-04-22 18:56 | -32.77862 | -56.71582 | 39127 ft | 484 kts | 176° |
| 2026-04-22 18:57 | -32.84257 | -56.69157 | 38720 ft | 482 kts | 177° |
| 2026-04-22 18:57 | -32.87463 | -56.67944 | 37930 ft | 485 kts | 177° |
| 2026-04-22 18:57 | -32.90705 | -56.66724 | 36973 ft | 491 kts | 176° |
| 2026-04-22 18:58 | -32.93961 | -56.65499 | 35939 ft | 500 kts | 176° |
| 2026-04-22 18:58 | -32.97306 | -56.64237 | 34946 ft | 508 kts | 175° |
| 2026-04-22 18:58 | -33.00689 | -56.62952 | 34030 ft | 512 kts | 175° |
| 2026-04-22 18:58 | -33.04091 | -56.61654 | 33100 ft | 514 kts | 174° |
| 2026-04-22 18:59 | -33.07488 | -56.60356 | 32212 ft | 511 kts | 173° |
| 2026-04-22 18:59 | -33.10869 | -56.59063 | 31068 ft | 509 kts | 173° |
| 2026-04-22 18:59 | -33.14248 | -56.57777 | 29942 ft | 510 kts | 172° |
| 2026-04-22 18:59 | -33.17630 | -56.56491 | 29098 ft | 507 kts | 172° |
| 2026-04-22 19:00 | -33.20921 | -56.55234 | 28560 ft | 499 kts | 171° |
| 2026-04-22 19:00 | -33.24183 | -56.53985 | 28267 ft | 485 kts | 171° |
| 2026-04-22 19:00 | -33.27365 | -56.52766 | 27909 ft | 474 kts | 171° |
| 2026-04-22 19:00 | -33.30481 | -56.51578 | 27397 ft | 467 kts | 171° |
| 2026-04-22 19:01 | -33.33563 | -56.50406 | 26889 ft | 461 kts | 171° |
| 2026-04-22 19:01 | -33.36600 | -56.49255 | 26382 ft | 455 kts | 172° |
| 2026-04-22 19:01 | -33.39624 | -56.48245 | 25885 ft | 447 kts | 174° |
| 2026-04-22 19:01 | -33.42628 | -56.47337 | 25388 ft | 441 kts | 174° |
| 2026-04-22 19:02 | -33.45556 | -56.46463 | 24869 ft | 438 kts | 174° |
| 2026-04-22 19:02 | -33.48496 | -56.45572 | 24417 ft | 433 kts | 173° |
| 2026-04-22 19:02 | -33.51415 | -56.44672 | 23930 ft | 430 kts | 172° |
| 2026-04-22 19:02 | -33.54300 | -56.43772 | 23370 ft | 427 kts | 172° |
| 2026-04-22 19:03 | -33.57153 | -56.42873 | 22926 ft | 420 kts | 172° |
| 2026-04-22 19:03 | -33.59968 | -56.41984 | 22457 ft | 415 kts | 172° |
| 2026-04-22 19:03 | -33.62708 | -56.41118 | 21997 ft | 410 kts | 172° |
| 2026-04-22 19:03 | -33.65449 | -56.40253 | 21533 ft | 405 kts | 172° |
| 2026-04-22 19:04 | -33.68158 | -56.39397 | 21069 ft | 400 kts | 172° |
| 2026-04-22 19:04 | -33.70846 | -56.38548 | 20616 ft | 396 kts | 172° |
| 2026-04-22 19:04 | -33.73500 | -56.37708 | 20161 ft | 392 kts | 172° |
| 2026-04-22 19:04 | -33.76135 | -56.36874 | 19713 ft | 389 kts | 172° |
| 2026-04-22 19:05 | -33.78740 | -56.36049 | 19268 ft | 386 kts | 172° |
| 2026-04-22 19:05 | -33.81327 | -56.35229 | 18825 ft | 383 kts | 172° |
| 2026-04-22 19:05 | -33.83896 | -56.34414 | 18377 ft | 380 kts | 172° |
| 2026-04-22 19:05 | -33.86444 | -56.33605 | 17909 ft | 376 kts | 172° |
| 2026-04-22 19:06 | -33.88965 | -56.32803 | 17470 ft | 373 kts | 172° |
| 2026-04-22 19:06 | -33.91563 | -56.31988 | 17025 ft | 398 kts | 172° |
| 2026-04-22 19:06 | -33.94263 | -56.31142 | 16559 ft | 411 kts | 171° |
| 2026-04-22 19:07 | -33.99805 | -56.29372 | 15599 ft | 410 kts | 171° |
| 2026-04-22 19:07 | -34.02540 | -56.28493 | 15141 ft | 403 kts | 171° |
| 2026-04-22 19:07 | -34.05223 | -56.27632 | 14669 ft | 396 kts | 171° |
| 2026-04-22 19:07 | -34.07871 | -56.26784 | 14210 ft | 389 kts | 171° |
| 2026-04-22 19:08 | -34.10474 | -56.25952 | 13744 ft | 383 kts | 171° |
| 2026-04-22 19:08 | -34.13023 | -56.25139 | 13293 ft | 376 kts | 171° |
| 2026-04-22 19:08 | -34.15529 | -56.24340 | 12865 ft | 368 kts | 171° |
| 2026-04-22 19:08 | -34.17980 | -56.23558 | 12444 ft | 361 kts | 171° |
| 2026-04-22 19:09 | -34.20385 | -56.22789 | 12036 ft | 354 kts | 171° |
| 2026-04-22 19:09 | -34.22718 | -56.22043 | 11626 ft | 348 kts | 171° |
| 2026-04-22 19:09 | -34.24295 | -56.21539 | 11359 ft | 344 kts | 171° |
| 2026-04-22 19:09 | -34.27322 | -56.20570 | 10835 ft | 336 kts | 170° |
| 2026-04-22 19:10 | -34.29556 | -56.19854 | 10580 ft | 326 kts | 170° |
| 2026-04-22 19:10 | -34.31704 | -56.19163 | 10463 ft | 312 kts | 170° |
| 2026-04-22 19:10 | -34.33751 | -56.18424 | 10343 ft | 302 kts | 163° |
| 2026-04-22 19:10 | -34.35560 | -56.17142 | 10074 ft | 304 kts | 146° |
| 2026-04-22 19:11 | -34.37029 | -56.15318 | 9876 ft | 299 kts | 137° |
| 2026-04-22 19:11 | -34.38417 | -56.13440 | 9721 ft | 302 kts | 137° |
| 2026-04-22 19:11 | -34.39843 | -56.11539 | 9405 ft | 307 kts | 137° |
| 2026-04-22 19:11 | -34.41277 | -56.09631 | 9072 ft | 305 kts | 137° |
| 2026-04-22 19:12 | -34.42693 | -56.07742 | 8744 ft | 301 kts | 137° |
| 2026-04-22 19:12 | -34.44091 | -56.05873 | 8409 ft | 297 kts | 138° |
| 2026-04-22 19:12 | -34.45468 | -56.04033 | 8082 ft | 293 kts | 138° |
| 2026-04-22 19:12 | -34.46827 | -56.02216 | 7758 ft | 289 kts | 138° |
| 2026-04-22 19:13 | -34.48152 | -56.00444 | 7448 ft | 285 kts | 138° |
| 2026-04-22 19:13 | -34.49478 | -55.98670 | 7125 ft | 282 kts | 138° |
| 2026-04-22 19:13 | -34.50785 | -55.96921 | 6820 ft | 278 kts | 138° |
| 2026-04-22 19:13 | -34.52079 | -55.95187 | 6510 ft | 276 kts | 138° |
| 2026-04-22 19:14 | -34.53358 | -55.93474 | 6195 ft | 272 kts | 138° |
| 2026-04-22 19:14 | -34.54620 | -55.91785 | 5896 ft | 268 kts | 137° |
| 2026-04-22 19:14 | -34.55863 | -55.90118 | 5598 ft | 265 kts | 137° |
| 2026-04-22 19:14 | -34.57091 | -55.88471 | 5311 ft | 261 kts | 137° |
| 2026-04-22 19:15 | -34.57884 | -55.87403 | 5227 ft | 253 kts | 137° |
| 2026-04-22 19:15 | -34.59393 | -55.85369 | 5055 ft | 232 kts | 137° |
| 2026-04-22 19:15 | -34.60434 | -55.83966 | 4888 ft | 218 kts | 137° |
| 2026-04-22 19:15 | -34.61427 | -55.82634 | 4541 ft | 214 kts | 137° |
| 2026-04-22 19:16 | -34.62427 | -55.81297 | 4125 ft | 213 kts | 137° |
| 2026-04-22 19:16 | -34.63413 | -55.79978 | 3827 ft | 208 kts | 136° |
| 2026-04-22 19:16 | -34.64382 | -55.78677 | 3505 ft | 207 kts | 136° |
| 2026-04-22 19:16 | -34.65472 | -55.77627 | 3339 ft | 195 kts | 161° |
| 2026-04-22 19:17 | -34.66768 | -55.77310 | 3072 ft | 188 kts | 187° |
| 2026-04-22 19:17 | -34.67990 | -55.77737 | 2995 ft | 186 kts | 212° |
| 2026-04-22 19:17 | -34.68979 | -55.78741 | 2974 ft | 184 kts | 228° |
| 2026-04-22 19:17 | -34.69774 | -55.79964 | 2984 ft | 184 kts | 234° |
| 2026-04-22 19:18 | -34.70519 | -55.81218 | 2981 ft | 184 kts | 233° |
| 2026-04-22 19:18 | -34.71278 | -55.82460 | 2975 ft | 185 kts | 233° |
| 2026-04-22 19:18 | -34.72045 | -55.83718 | 2986 ft | 186 kts | 233° |
| 2026-04-22 19:18 | -34.72806 | -55.84967 | 2989 ft | 183 kts | 233° |
| 2026-04-22 19:19 | -34.73575 | -55.86227 | 2988 ft | 187 kts | 233° |
| 2026-04-22 19:19 | -34.74352 | -55.87503 | 2921 ft | 189 kts | 233° |
| 2026-04-22 19:19 | -34.75134 | -55.88787 | 2668 ft | 188 kts | 233° |
| 2026-04-22 19:19 | -34.75909 | -55.90058 | 2438 ft | 181 kts | 233° |
| 2026-04-22 19:20 | -34.76620 | -55.91225 | 2188 ft | 164 kts | 234° |
| 2026-04-22 19:20 | -34.77267 | -55.92287 | 1984 ft | 147 kts | 234° |
| 2026-04-22 19:20 | -34.77839 | -55.93226 | 1773 ft | 129 kts | 234° |
| 2026-04-22 19:20 | -34.78341 | -55.94052 | 1622 ft | 124 kts | 235° |
| 2026-04-22 19:21 | -34.78852 | -55.94890 | 1446 ft | 122 kts | 234° |
| 2026-04-22 19:21 | -34.79355 | -55.95719 | 1293 ft | 122 kts | 234° |
| 2026-04-22 19:21 | -34.79863 | -55.96541 | 1122 ft | 121 kts | 234° |
| 2026-04-22 19:21 | -34.80377 | -55.97365 | 950 ft | 123 kts | 234° |
| 2026-04-22 19:22 | -34.80888 | -55.98228 | 762 ft | 127 kts | 235° |
| 2026-04-22 19:22 | -34.81393 | -55.99062 | 570 ft | 121 kts | 236° |
| 2026-04-22 19:22 | -34.81891 | -55.99883 | 364 ft | 118 kts | 236° |
| 2026-04-22 19:22 | -34.82381 | -56.00682 | 239 ft | 121 kts | 237° |
| 2026-04-22 19:23 | -34.82882 | -56.01508 | 104 ft | 120 kts | 237° |
| 2026-04-22 19:23 | -34.83302 | -56.02211 | 86 ft | 69 kts | 233° |
| 2026-04-22 19:23 | -34.83550 | -56.02609 | 82 ft | 54 kts | 232° |
| 2026-04-22 19:23 | -34.83683 | -56.02821 | 83 ft | 18 kts | 230° |
| 2026-04-22 19:24 | -34.83804 | -56.02847 | 84 ft | 19 kts | 178° |
| 2026-04-22 19:24 | -34.83925 | -56.02811 | 85 ft | 12 kts | 153° |
| 2026-04-22 19:24 | -34.83959 | -56.02790 | 82 ft | 4 kts | 152° |
| 2026-04-22 19:24 | -34.83994 | -56.02759 | 87 ft | 8 kts | 136° |
| 2026-04-22 19:25 | -34.84029 | -56.02709 | 82 ft | 8 kts | 131° |
| 2026-04-22 19:25 | -34.84038 | -56.02697 | 86 ft | 0 kts | 134° |